Time;durP1;ratioP1;P1;durP2;ratioP2;P2;SDS_P1;SDS_P2;PMS_P1;PMS_P2;Temp;Humidity;BMP_temperature;BMP_pressure;BME280_temperature;BME280_humidity;BME280_pressure;Samples;Min_cycle;Max_cycle;Signal;HPM_P1;HPM_P2
2021/01/24 00:00:03;;;;;;;;;;;;;;;3.97;75.92;97543.88;3135880;28;19928;-81
2021/01/24 00:01:37;;;;;;;;;;;;;;;3.94;76.25;97544.19;3128802;28;19924;-80
2021/01/24 00:03:09;;;;;;;;;;;;;;;4.04;75.72;97550.13;3136957;28;19928;-81
2021/01/24 00:04:41;;;;;;;;;;;;;;;4.02;76.04;97536.25;3130685;28;19925;-81
2021/01/24 00:06:12;;;;;;;;;;;;;;;3.99;76.09;97546.34;3133096;28;19932;-80
2021/01/24 00:07:43;;;;;;;;;;;;;;;4.00;75.97;97543.53;3114689;28;19925;-80
2021/01/24 00:09:14;;;;;;;;;;;;;;;3.98;75.90;97542.03;3125107;28;19925;-81
2021/01/24 00:10:45;;;;;;;;;;;;;;;4.00;76.42;97545.34;3137221;28;19940;-81
2021/01/24 00:12:18;;;;;;;;;;;;;;;4.00;76.44;97548.00;3141883;28;19924;-81
2021/01/24 00:13:49;;;;;;;;;;;;;;;3.98;76.58;97545.53;3138138;28;19925;-81
2021/01/24 00:15:20;;;;;;;;;;;;;;;4.01;76.77;97549.66;3137589;28;19925;-80
2021/01/24 00:16:52;;;;;;;;;;;;;;;4.04;76.94;97547.50;3133002;28;20299;-81
2021/01/24 00:18:23;;;;;;;;;;;;;;;4.04;76.70;97552.78;3138935;28;19984;-81
2021/01/24 00:19:54;;;;;;;;;;;;;;;4.05;77.05;97557.09;3133952;28;19940;-81
2021/01/24 00:21:25;;;;;;;;;;;;;;;4.06;76.62;97552.63;3131232;28;19988;-81
2021/01/24 00:22:56;;;;;;;;;;;;;;;4.07;77.27;97554.25;3141019;28;19928;-81
2021/01/24 00:24:27;;;;;;;;;;;;;;;4.03;77.53;97551.13;3133924;28;19932;-80
2021/01/24 00:25:58;;;;;;;;;;;;;;;4.00;77.29;97554.13;3136378;28;20022;-81
2021/01/24 00:27:29;;;;;;;;;;;;;;;3.94;77.88;97559.22;3131141;28;19925;-79
2021/01/24 00:28:59;;;;;;;;;;;;;;;3.87;77.79;97561.69;3133841;28;19924;-81
2021/01/24 00:30:30;;;;;;;;;;;;;;;3.89;77.58;97551.78;3133549;28;20030;-79
2021/01/24 00:32:01;;;;;;;;;;;;;;;3.87;78.03;97561.69;3133435;28;19924;-80
2021/01/24 00:33:32;;;;;;;;;;;;;;;3.89;77.82;97560.53;3134386;28;19932;-81
2021/01/24 00:35:05;;;;;;;;;;;;;;;3.90;77.79;97558.72;3129778;28;19960;-81
2021/01/24 00:36:35;;;;;;;;;;;;;;;3.89;77.63;97557.88;3138710;28;20028;-81
2021/01/24 00:38:06;;;;;;;;;;;;;;;3.94;77.31;97551.31;3135214;28;19935;-81
2021/01/24 00:39:37;;;;;;;;;;;;;;;3.93;77.62;97555.75;3138152;28;19928;-81
2021/01/24 00:41:08;;;;;;;;;;;;;;;3.95;77.67;97545.03;3136275;28;20027;-81
2021/01/24 00:42:39;;;;;;;;;;;;;;;3.93;77.47;97544.34;3136918;28;19983;-81
2021/01/24 00:44:10;;;;;;;;;;;;;;;4.01;77.04;97549.66;3135816;28;20341;-81
2021/01/24 00:45:41;;;;;;;;;;;;;;;3.96;77.00;97551.97;3140331;28;19973;-80
2021/01/24 00:47:13;;;;;;;;;;;;;;;3.93;77.39;97542.53;3135053;28;19929;-81
2021/01/24 00:48:45;;;;;;;;;;;;;;;3.95;77.93;97545.03;3137726;28;19970;-81
2021/01/24 00:50:18;;;;;;;;;;;;;;;3.97;76.99;97543.06;3135417;28;19929;-81
2021/01/24 00:51:50;;;;;;;;;;;;;;;3.95;77.22;97545.03;3133600;28;19931;-81
2021/01/24 00:53:21;;;;;;;;;;;;;;;3.92;77.34;97545.34;3137169;28;19935;-80
2021/01/24 00:54:52;;;;;;;;;;;;;;;3.96;77.41;97544.03;3136265;28;19947;-81
2021/01/24 00:56:23;;;;;;;;;;;;;;;4.00;77.21;97548.00;3135953;28;19936;-80
2021/01/24 00:57:54;;;;;;;;;;;;;;;4.00;76.73;97548.00;3131828;28;19932;-81
2021/01/24 00:59:25;;;;;;;;;;;;;;;4.00;77.01;97548.84;3135502;28;19932;-80
2021/01/24 01:00:57;;;;;;;;;;;;;;;4.02;77.06;97549.47;3135351;28;19948;-80
2021/01/24 01:02:28;;;;;;;;;;;;;;;3.97;77.02;97545.69;3137995;28;19979;-81
2021/01/24 01:04:00;;;;;;;;;;;;;;;3.98;77.08;97544.69;3134183;28;19932;-81
2021/01/24 01:05:33;;;;;;;;;;;;;;;3.97;77.06;97545.69;3135546;28;19925;-80
2021/01/24 01:07:04;;;;;;;;;;;;;;;3.99;76.70;97547.19;3131969;28;20302;-79
2021/01/24 01:08:34;;;;;;;;;;;;;;;3.95;77.08;97548.47;3134996;28;19967;-81
2021/01/24 01:10:06;;;;;;;;;;;;;;;3.94;77.10;97548.66;3134315;28;19925;-80
2021/01/24 01:11:37;;;;;;;;;;;;;;;3.92;77.02;97546.16;3137401;28;19975;-81
2021/01/24 01:13:08;;;;;;;;;;;;;;;3.97;77.48;97548.34;3132678;28;19952;-80
2021/01/24 01:14:39;;;;;;;;;;;;;;;3.97;77.12;97545.69;3135273;28;20391;-81
2021/01/24 01:16:10;;;;;;;;;;;;;;;4.01;76.76;97544.34;3134010;28;19929;-81
2021/01/24 01:17:41;;;;;;;;;;;;;;;4.06;77.04;97553.47;3138010;28;19933;-81
2021/01/24 01:19:12;;;;;;;;;;;;;;;4.10;76.94;97553.13;3136871;28;20310;-81
2021/01/24 01:20:43;;;;;;;;;;;;;;;4.16;76.51;97555.91;3136164;28;19925;-81
2021/01/24 01:22:15;;;;;;;;;;;;;;;4.17;76.45;97552.28;3132017;28;19928;-81
2021/01/24 01:23:46;;;;;;;;;;;;;;;4.17;76.76;97557.59;3137907;28;19929;-81
2021/01/24 01:25:16;;;;;;;;;;;;;;;4.13;76.66;97552.78;3136144;28;19924;-81
2021/01/24 01:26:47;;;;;;;;;;;;;;;4.08;76.67;97545.34;3143170;28;19982;-81
2021/01/24 01:28:18;;;;;;;;;;;;;;;4.11;76.67;97552.97;3137698;28;19936;-81
2021/01/24 01:29:49;;;;;;;;;;;;;;;4.16;76.19;97553.28;3135359;28;20377;-81
2021/01/24 01:31:20;;;;;;;;;;;;;;;4.19;76.40;97546.84;3133985;28;19929;-80
2021/01/24 01:32:52;;;;;;;;;;;;;;;4.18;76.37;97550.50;3137411;28;19968;-81
2021/01/24 01:34:23;;;;;;;;;;;;;;;4.17;76.52;97560.22;3135493;28;19955;-81
2021/01/24 01:35:55;;;;;;;;;;;;;;;4.15;76.54;97553.47;3142377;28;19995;-80
2021/01/24 01:37:26;;;;;;;;;;;;;;;4.14;76.40;97552.63;3145107;28;19925;-80
2021/01/24 01:38:58;;;;;;;;;;;;;;;4.17;76.47;97557.59;3148898;28;19971;-81
2021/01/24 01:40:29;;;;;;;;;;;;;;;4.19;76.32;97552.16;3140251;28;19965;-81
2021/01/24 01:42:00;;;;;;;;;;;;;;;4.21;76.26;97550.97;3139850;28;19932;-81
2021/01/24 01:43:31;;;;;;;;;;;;;;;4.21;76.09;97555.44;3141058;28;19955;-80
2021/01/24 01:45:02;;;;;;;;;;;;;;;4.19;76.16;97550.31;3144760;28;19920;-79
2021/01/24 01:46:33;;;;;;;;;;;;;;;4.20;76.07;97557.25;3141895;28;19929;-80
2021/01/24 01:48:04;;;;;;;;;;;;;;;4.24;75.93;97562.22;3143932;28;19940;-81
2021/01/24 01:49:35;;;;;;;;;;;;;;;4.25;76.13;97550.66;3145201;28;19925;-81
2021/01/24 01:51:07;;;;;;;;;;;;;;;4.26;76.09;97552.28;3145786;28;19935;-81
2021/01/24 01:52:38;;;;;;;;;;;;;;;4.29;76.06;97551.97;3141416;28;19933;-81
2021/01/24 01:54:09;;;;;;;;;;;;;;;4.18;76.37;97556.59;3141560;28;20452;-80
2021/01/24 01:55:40;;;;;;;;;;;;;;;4.15;76.66;97556.09;3142902;28;19931;-80
2021/01/24 01:57:11;;;;;;;;;;;;;;;4.21;76.62;97544.84;3135536;28;19925;-81
2021/01/24 01:58:42;;;;;;;;;;;;;;;4.20;76.20;97549.31;3130614;28;19925;-81
2021/01/24 02:00:13;;;;;;;;;;;;;;;4.20;76.10;97553.81;3135986;28;20454;-81
2021/01/24 02:01:50;;;;;;;;;;;;;;;4.16;76.28;97558.56;3133420;28;20021;-81
2021/01/24 02:03:29;;;;;;;;;;;;;;;4.10;76.73;97550.50;3139792;28;19964;-81
2021/01/24 02:05:03;;;;;;;;;;;;;;;4.08;76.63;97553.28;3136111;28;19931;-81
2021/01/24 02:06:38;;;;;;;;;;;;;;;4.07;76.79;97551.63;3135864;28;19925;-81
2021/01/24 02:08:12;;;;;;;;;;;;;;;4.04;77.14;97554.63;3143176;28;19987;-80
2021/01/24 02:09:45;;;;;;;;;;;;;;;4.03;76.81;97558.25;3140443;28;19920;-81
2021/01/24 02:11:18;;;;;;;;;;;;;;;4.02;77.11;97554.75;3140839;28;19935;-79
2021/01/24 02:12:56;;;;;;;;;;;;;;;4.00;77.11;97556.75;3137475;28;19925;-79
2021/01/24 02:14:29;;;;;;;;;;;;;;;4.03;77.35;97555.59;3137659;28;19931;-78
2021/01/24 02:16:02;;;;;;;;;;;;;;;3.96;77.34;97557.25;3135523;28;19925;-77
2021/01/24 02:17:36;;;;;;;;;;;;;;;3.96;77.59;97558.06;3134955;28;19928;-77
2021/01/24 02:19:10;;;;;;;;;;;;;;;3.95;77.71;97561.69;3133541;28;19936;-78
2021/01/24 02:20:44;;;;;;;;;;;;;;;3.94;78.02;97564.53;3137937;28;20310;-78
2021/01/24 02:22:17;;;;;;;;;;;;;;;3.89;77.54;97568.47;3132271;28;19924;-78
2021/01/24 02:23:51;;;;;;;;;;;;;;;3.86;78.02;97579.38;3140802;28;19924;-79
2021/01/24 02:25:26;;;;;;;;;;;;;;;3.78;78.46;97581.97;3130955;28;19943;-79
2021/01/24 02:27:02;;;;;;;;;;;;;;;3.71;78.65;97591.56;3142703;28;19929;-81
2021/01/24 02:28:41;;;;;;;;;;;;;;;3.69;78.33;97588.22;3147768;28;19931;-79
2021/01/24 02:30:27;;;;;;;;;;;;;;;3.65;78.50;97586.91;3149276;28;19925;-80
2021/01/24 02:32:00;;;;;;;;;;;;;;;3.57;78.48;97588.56;3144919;28;19925;-81
2021/01/24 02:33:33;;;;;;;;;;;;;;;3.55;78.01;97593.16;3147952;28;19956;-80
2021/01/24 02:35:05;;;;;;;;;;;;;;;3.50;77.82;97592.81;3142162;28;19925;-78
2021/01/24 02:36:36;;;;;;;;;;;;;;;3.38;78.33;97602.03;3147709;28;19996;-78
2021/01/24 02:38:09;;;;;;;;;;;;;;;3.35;78.59;97610.25;3143661;28;19921;-80
2021/01/24 02:39:40;;;;;;;;;;;;;;;3.31;78.80;97607.09;3145479;28;20012;-78
2021/01/24 02:41:14;;;;;;;;;;;;;;;3.35;78.54;97602.31;3142347;28;19925;-80
2021/01/24 02:42:48;;;;;;;;;;;;;;;3.31;78.31;97611.56;3145264;28;19936;-80
2021/01/24 02:44:20;;;;;;;;;;;;;;;3.24;78.77;97620.09;3144543;28;19936;-79
2021/01/24 02:45:52;;;;;;;;;;;;;;;3.17;78.78;97619.09;3142750;28;19925;-80
2021/01/24 02:47:25;;;;;;;;;;;;;;;3.18;78.02;97617.25;3145482;28;20391;-78
2021/01/24 02:48:59;;;;;;;;;;;;;;;3.18;77.56;97617.25;3138198;28;19948;-77
2021/01/24 02:50:31;;;;;;;;;;;;;;;3.16;76.96;97625.34;3139383;28;19947;-78
2021/01/24 02:52:02;;;;;;;;;;;;;;;3.10;76.79;97626.81;3135356;28;20012;-79
2021/01/24 02:53:34;;;;;;;;;;;;;;;3.10;76.34;97634.72;3141915;28;20003;-77
2021/01/24 02:55:08;;;;;;;;;;;;;;;3.09;76.42;97632.25;3141087;28;19952;-77
2021/01/24 02:56:46;;;;;;;;;;;;;;;3.12;76.06;97645.13;3138490;28;20011;-78
2021/01/24 03:00:16;;;;;;;;;;;;;;;3.05;76.65;97654.66;3137538;28;19925;-78
2021/01/24 03:01:47;;;;;;;;;;;;;;;3.04;76.87;97658.25;3136497;28;19972;-78
2021/01/24 03:03:20;;;;;;;;;;;;;;;3.01;76.45;97656.78;3137689;28;19928;-78
2021/01/24 03:04:52;;;;;;;;;;;;;;;2.98;76.67;97662.34;3137368;28;20454;-78
2021/01/24 03:06:23;;;;;;;;;;;;;;;2.93;76.97;97670.72;3139056;28;19947;-81
2021/01/24 03:07:55;;;;;;;;;;;;;;;2.91;76.93;97671.88;3134151;28;20689;-78
2021/01/24 03:09:25;;;;;;;;;;;;;;;2.96;76.67;97659.88;3139393;28;19924;-77
2021/01/24 03:10:56;;;;;;;;;;;;;;;2.90;75.96;97667.56;3135982;28;20016;-76
2021/01/24 03:12:32;;;;;;;;;;;;;;;2.90;76.20;97670.22;3138367;28;20004;-78
2021/01/24 03:14:07;;;;;;;;;;;;;;;2.92;75.91;97677.03;3133545;28;20019;-77
2021/01/24 03:15:39;;;;;;;;;;;;;;;2.91;75.69;97680.63;3135922;28;19960;-77
2021/01/24 03:17:10;;;;;;;;;;;;;;;2.87;75.68;97683.75;3140229;28;19925;-79
2021/01/24 03:18:44;;;;;;;;;;;;;;;2.83;76.12;97683.22;3143630;28;19956;-78
2021/01/24 03:20:16;;;;;;;;;;;;;;;2.88;75.33;97691.50;3141440;28;20371;-78
2021/01/24 03:21:47;;;;;;;;;;;;;;;2.86;75.75;97692.63;3137729;28;20022;-78
2021/01/24 03:23:20;;;;;;;;;;;;;;;2.89;75.52;97695.78;3137664;28;20376;-78
2021/01/24 03:24:52;;;;;;;;;;;;;;;2.93;74.83;97704.22;3135511;28;19929;-79
2021/01/24 03:26:23;;;;;;;;;;;;;;;2.91;74.65;97696.47;3141491;28;19964;-77
2021/01/24 03:27:55;;;;;;;;;;;;;;;2.99;74.00;97692.22;3145250;28;20241;-77
2021/01/24 03:29:26;;;;;;;;;;;;;;;2.96;73.77;97707.38;3140525;28;19944;-77
2021/01/24 03:30:57;;;;;;;;;;;;;;;2.99;73.03;97697.50;3137317;28;19943;-77
2021/01/24 03:32:28;;;;;;;;;;;;;;;2.96;73.30;97710.03;3135940;28;19944;-78
2021/01/24 03:34:01;;;;;;;;;;;;;;;2.90;73.79;97710.66;3135968;28;19932;-76
2021/01/24 03:35:33;;;;;;;;;;;;;;;2.91;73.52;97720.22;3136452;28;19931;-78
2021/01/24 03:37:04;;;;;;;;;;;;;;;2.99;73.17;97718.63;3131917;28;19924;-77
2021/01/24 03:38:35;;;;;;;;;;;;;;;2.97;73.34;97732.81;3135810;28;19962;-78
2021/01/24 03:40:07;;;;;;;;;;;;;;;2.99;72.74;97731.81;3133837;28;20036;-77
2021/01/24 03:41:38;;;;;;;;;;;;;;;3.04;73.14;97718.97;3136718;28;19952;-77
2021/01/24 03:43:09;;;;;;;;;;;;;;;3.00;72.72;97741.41;3140167;28;19940;-78
2021/01/24 03:44:40;;;;;;;;;;;;;;;2.91;72.93;97737.84;3137442;28;19955;-76
2021/01/24 03:46:11;;;;;;;;;;;;;;;2.96;72.78;97741.69;3136594;28;19925;-78
2021/01/24 03:47:42;;;;;;;;;;;;;;;2.92;72.36;97744.81;3132705;28;19936;-77
2021/01/24 03:49:14;;;;;;;;;;;;;;;2.95;71.82;97747.97;3135471;28;19924;-78
2021/01/24 03:50:45;;;;;;;;;;;;;;;2.94;71.57;97775.34;3137265;28;19960;-78
2021/01/24 03:52:16;;;;;;;;;;;;;;;2.95;71.19;97769.06;3134849;28;19932;-77
2021/01/24 03:53:46;;;;;;;;;;;;;;;3.00;71.83;97773.91;3134497;28;19925;-77
2021/01/24 03:55:17;;;;;;;;;;;;;;;2.92;71.92;97782.59;3133939;28;20607;-78
2021/01/24 03:56:48;;;;;;;;;;;;;;;3.02;71.40;97774.59;3136391;28;19964;-77
2021/01/24 03:58:20;;;;;;;;;;;;;;;2.94;71.12;97772.69;3133006;28;19928;-77
2021/01/24 04:00:18;;;;;;;;;;;;;;;2.95;71.11;97786.75;3137696;28;19960;-77
2021/01/24 04:02:15;;;;;;;;;;;;;;;2.93;70.48;97775.50;3132711;28;19924;-77
2021/01/24 04:06:31;;;;;;;;;;;;;;;2.89;70.84;97792.59;3123184;28;19947;-77
2021/01/24 04:08:39;;;;;;;;;;;;;;;2.79;71.64;97804.06;3126219;28;20375;-77
2021/01/24 04:10:15;;;;;;;;;;;;;;;2.91;70.70;97794.13;3136314;28;19925;-76
2021/01/24 04:11:46;;;;;;;;;;;;;;;2.85;70.84;97807.91;3137245;28;19933;-77
2021/01/24 04:13:17;;;;;;;;;;;;;;;2.80;71.09;97800.44;3134578;28;19988;-76
2021/01/24 04:14:49;;;;;;;;;;;;;;;2.80;71.17;97795.16;3138744;28;19931;-76
2021/01/24 04:16:21;;;;;;;;;;;;;;;2.77;70.36;97811.31;3136410;28;19968;-78
2021/01/24 04:17:51;;;;;;;;;;;;;;;2.78;70.26;97810.34;3138178;28;19960;-80
2021/01/24 04:19:22;;;;;;;;;;;;;;;2.78;69.76;97825.34;3132685;28;19925;-76
2021/01/24 04:20:53;;;;;;;;;;;;;;;2.77;69.55;97810.47;3138138;28;19925;-76
2021/01/24 04:22:24;;;;;;;;;;;;;;;2.74;68.84;97824.00;3133217;28;19971;-77
2021/01/24 04:23:56;;;;;;;;;;;;;;;2.77;68.37;97821.03;3136922;28;19925;-76
2021/01/24 04:25:27;;;;;;;;;;;;;;;2.83;67.52;97820.44;3135842;28;19971;-77
2021/01/24 04:26:59;;;;;;;;;;;;;;;2.75;67.63;97838.81;3140056;28;20130;-77
2021/01/24 04:28:30;;;;;;;;;;;;;;;2.75;67.98;97821.19;3134628;28;19925;-76
2021/01/24 04:30:01;;;;;;;;;;;;;;;2.78;67.10;97828.81;3139433;28;19929;-77
2021/01/24 04:31:32;;;;;;;;;;;;;;;2.73;67.75;97840.78;3135840;28;19932;-77
2021/01/24 04:33:04;;;;;;;;;;;;;;;2.80;67.36;97845.31;3136174;28;20043;-76
2021/01/24 04:34:35;;;;;;;;;;;;;;;2.75;67.03;97842.31;3133683;28;19939;-76
2021/01/24 04:36:07;;;;;;;;;;;;;;;2.72;67.25;97839.94;3134257;28;19925;-77
2021/01/24 04:37:37;;;;;;;;;;;;;;;2.73;66.74;97846.88;3138342;28;19925;-76
2021/01/24 04:39:09;;;;;;;;;;;;;;;2.70;67.00;97852.44;3137519;28;20043;-76
2021/01/24 04:40:41;;;;;;;;;;;;;;;2.76;66.65;97843.97;3134977;28;19924;-76
2021/01/24 04:42:12;;;;;;;;;;;;;;;2.67;66.04;97841.38;3137760;28;20402;-76
2021/01/24 04:43:43;;;;;;;;;;;;;;;2.70;65.37;97857.72;3134569;28;20393;-76
2021/01/24 04:45:14;;;;;;;;;;;;;;;2.71;65.78;97856.75;3141567;28;19933;-75
2021/01/24 04:46:47;;;;;;;;;;;;;;;2.58;65.96;97858.94;3138099;28;20299;-79
2021/01/24 04:48:18;;;;;;;;;;;;;;;2.61;65.88;97855.97;3131054;28;19932;-76
2021/01/24 04:49:49;;;;;;;;;;;;;;;2.63;65.61;97848.75;3133570;28;19951;-78
2021/01/24 04:51:21;;;;;;;;;;;;;;;2.78;64.87;97835.88;3137916;28;19925;-75
2021/01/24 04:52:56;;;;;;;;;;;;;;;2.74;64.94;97845.91;3136425;28;20009;-76
2021/01/24 04:54:28;;;;;;;;;;;;;;;2.65;65.45;97844.97;3138589;28;19932;-77
2021/01/24 04:56:00;;;;;;;;;;;;;;;2.59;65.74;97858.78;3132129;28;19932;-76
2021/01/24 04:57:31;;;;;;;;;;;;;;;2.57;66.28;97862.53;3138123;28;19940;-77
2021/01/24 04:59:04;;;;;;;;;;;;;;;2.59;66.08;97865.88;3139711;28;19959;-76
2021/01/24 05:00:35;;;;;;;;;;;;;;;2.49;66.61;97869.41;3147269;28;19925;-78
2021/01/24 05:02:08;;;;;;;;;;;;;;;2.52;66.77;97872.69;3138249;28;19943;-79
2021/01/24 05:03:42;;;;;;;;;;;;;;;2.49;66.65;97850.09;3137960;28;19932;-78
2021/01/24 05:05:17;;;;;;;;;;;;;;;2.48;66.99;97858.97;3130962;28;20028;-78
2021/01/24 05:07:07;;;;;;;;;;;;;;;2.43;66.96;97861.22;3128324;28;19951;-78
2021/01/24 05:08:52;;;;;;;;;;;;;;;2.46;66.49;97871.47;3129059;28;19928;-76
2021/01/24 05:10:54;;;;;;;;;;;;;;;2.52;66.05;97855.06;3132301;28;19933;-77
2021/01/24 05:12:29;;;;;;;;;;;;;;;2.38;66.81;97863.47;3134052;28;19926;-76
2021/01/24 05:14:15;;;;;;;;;;;;;;;2.48;65.94;97866.88;3135703;28;19933;-78
2021/01/24 05:15:46;;;;;;;;;;;;;;;2.42;66.53;97870.94;3136701;28;19975;-77
2021/01/24 05:17:17;;;;;;;;;;;;;;;2.44;66.48;97874.25;3134475;28;19928;-81
2021/01/24 05:18:55;;;;;;;;;;;;;;;2.43;65.99;97877.88;3136482;28;19967;-77
2021/01/24 05:20:27;;;;;;;;;;;;;;;2.38;66.63;97885.41;3136832;28;20057;-76
2021/01/24 05:22:05;;;;;;;;;;;;;;;2.40;66.44;97877.34;3133633;28;19968;-77
2021/01/24 05:23:36;;;;;;;;;;;;;;;2.39;66.47;97880.94;3144687;28;19925;-78
2021/01/24 05:25:09;;;;;;;;;;;;;;;2.36;66.37;97873.34;3143224;28;20019;-78
2021/01/24 05:26:42;;;;;;;;;;;;;;;2.40;66.09;97882.59;3147210;28;19947;-77
2021/01/24 05:28:17;;;;;;;;;;;;;;;2.38;66.45;97881.91;3144055;28;19947;-77
2021/01/24 05:29:48;;;;;;;;;;;;;;;2.38;66.10;97882.75;3144061;28;20017;-79
2021/01/24 05:31:21;;;;;;;;;;;;;;;2.42;65.63;97888.56;3140262;28;19925;-79
2021/01/24 05:32:53;;;;;;;;;;;;;;;2.41;65.38;97890.38;3147607;28;19928;-78
2021/01/24 05:34:24;;;;;;;;;;;;;;;2.40;65.19;97885.25;3133673;28;19929;-76
2021/01/24 05:35:58;;;;;;;;;;;;;;;2.37;65.06;97898.72;3139717;28;19956;-78
2021/01/24 05:37:37;;;;;;;;;;;;;;;2.40;64.81;97895.78;3135090;28;19925;-77
2021/01/24 05:39:12;;;;;;;;;;;;;;;2.44;64.17;97894.53;3132843;28;19986;-76
2021/01/24 05:40:45;;;;;;;;;;;;;;;2.31;64.77;97911.50;3137689;28;19924;-77
2021/01/24 05:42:19;;;;;;;;;;;;;;;2.39;63.76;97896.78;3139997;28;19929;-77
2021/01/24 05:43:56;;;;;;;;;;;;;;;2.44;63.81;97905.09;3135485;28;19952;-77
2021/01/24 05:45:37;;;;;;;;;;;;;;;2.42;63.79;97897.31;3135832;28;20332;-76
2021/01/24 05:47:08;;;;;;;;;;;;;;;2.40;63.74;97908.97;3131735;28;20080;-76
2021/01/24 05:48:48;;;;;;;;;;;;;;;2.41;63.46;97908.81;3136418;28;19929;-77
2021/01/24 05:50:20;;;;;;;;;;;;;;;2.34;63.56;97897.19;3134282;28;20027;-77
2021/01/24 05:52:03;;;;;;;;;;;;;;;2.43;63.17;97913.97;3134151;28;19925;-77
2021/01/24 05:53:40;;;;;;;;;;;;;;;2.34;63.14;97913.88;3127452;28;20047;-76
2021/01/24 05:55:31;;;;;;;;;;;;;;;2.34;62.88;97915.66;3133593;28;19935;-79
2021/01/24 05:57:06;;;;;;;;;;;;;;;2.34;62.75;97915.66;3139511;28;19925;-76
2021/01/24 05:58:41;;;;;;;;;;;;;;;2.29;63.10;97921.38;3133475;28;19929;-77
2021/01/24 06:00:14;;;;;;;;;;;;;;;2.28;62.93;97927.63;3136529;28;19932;-77
2021/01/24 06:01:45;;;;;;;;;;;;;;;2.26;62.56;97923.47;3135652;28;19992;-77
2021/01/24 06:03:17;;;;;;;;;;;;;;;2.32;62.05;97925.53;3134596;28;19925;-78
2021/01/24 06:04:48;;;;;;;;;;;;;;;2.31;61.63;97927.34;3135873;28;19933;-77
2021/01/24 06:06:20;;;;;;;;;;;;;;;2.26;62.54;97929.59;3137591;28;19973;-77
2021/01/24 06:07:54;;;;;;;;;;;;;;;2.28;62.22;97935.53;3130675;28;19925;-77
2021/01/24 06:09:26;;;;;;;;;;;;;;;2.37;61.77;97935.63;3135427;28;20443;-78
2021/01/24 06:11:04;;;;;;;;;;;;;;;2.34;61.67;97942.88;3130729;28;19952;-78
2021/01/24 06:12:43;;;;;;;;;;;;;;;2.29;61.61;97937.19;3133113;28;19982;-77
2021/01/24 06:14:29;;;;;;;;;;;;;;;2.31;61.24;97937.88;3135631;28;19929;-77
2021/01/24 06:16:09;;;;;;;;;;;;;;;2.31;60.67;97940.53;3132950;28;20176;-78
2021/01/24 06:17:51;;;;;;;;;;;;;;;2.29;59.98;97942.47;3136853;28;19929;-77
2021/01/24 06:19:38;;;;;;;;;;;;;;;2.26;60.54;97934.00;3133104;28;19951;-77
2021/01/24 06:21:16;;;;;;;;;;;;;;;2.23;60.71;97939.56;3134551;28;20228;-77
2021/01/24 06:22:49;;;;;;;;;;;;;;;2.23;60.67;97940.41;3132013;28;19925;-77
2021/01/24 06:24:23;;;;;;;;;;;;;;;2.12;61.80;97943.22;3134581;28;19932;-79
2021/01/24 06:26:00;;;;;;;;;;;;;;;2.24;61.16;97915.72;3134481;28;19928;-77
2021/01/24 06:27:37;;;;;;;;;;;;;;;2.30;60.41;97946.78;3136306;28;19933;-77
2021/01/24 06:29:09;;;;;;;;;;;;;;;2.18;60.86;97955.81;3132786;28;20386;-77
2021/01/24 06:30:44;;;;;;;;;;;;;;;2.07;61.36;97940.19;3138951;28;20756;-77
2021/01/24 06:32:23;;;;;;;;;;;;;;;2.17;61.22;97941.00;3135078;28;20018;-78
2021/01/24 06:34:03;;;;;;;;;;;;;;;2.12;60.56;97943.22;3133493;28;19924;-79
2021/01/24 06:35:44;;;;;;;;;;;;;;;2.10;61.55;97947.78;3124689;28;20032;-79
2021/01/24 06:37:19;;;;;;;;;;;;;;;2.08;61.61;97957.66;3133215;28;19925;-80
2021/01/24 06:38:55;;;;;;;;;;;;;;;2.11;61.67;97957.38;3138087;28;19987;-77
2021/01/24 06:40:31;;;;;;;;;;;;;;;2.04;62.29;97972.91;3136184;28;19928;-78
2021/01/24 06:42:05;;;;;;;;;;;;;;;2.10;61.68;97976.78;3136822;28;19929;-77
2021/01/24 06:43:42;;;;;;;;;;;;;;;2.12;61.89;97980.13;3134374;28;19932;-76
2021/01/24 06:45:28;;;;;;;;;;;;;;;2.10;62.18;97988.19;3133885;28;19925;-78
2021/01/24 06:47:01;;;;;;;;;;;;;;;2.12;62.22;97995.94;3130508;28;21153;-78
2021/01/24 06:48:50;;;;;;;;;;;;;;;2.14;62.14;97994.00;3135162;28;19931;-77
2021/01/24 06:50:39;;;;;;;;;;;;;;;2.07;61.85;97990.25;3134400;28;19925;-79
2021/01/24 06:52:19;;;;;;;;;;;;;;;2.14;61.70;98000.09;3138517;28;19925;-78
2021/01/24 06:53:55;;;;;;;;;;;;;;;2.09;61.92;97991.78;3129954;28;19932;-77
2021/01/24 06:55:30;;;;;;;;;;;;;;;2.11;62.43;97994.28;3133215;28;19952;-78
2021/01/24 06:57:17;;;;;;;;;;;;;;;2.11;62.45;98010.94;3136705;28;20067;-77
2021/01/24 06:58:53;;;;;;;;;;;;;;;2.17;61.83;98020.09;3125508;28;19987;-78
2021/01/24 07:00:31;;;;;;;;;;;;;;;2.08;62.13;98010.38;3137197;28;19925;-77
2021/01/24 07:02:24;;;;;;;;;;;;;;;2.11;62.42;98018.00;3138863;28;19931;-77
2021/01/24 07:04:14;;;;;;;;;;;;;;;2.02;63.01;98028.41;3133680;28;19925;-78
2021/01/24 07:05:45;;;;;;;;;;;;;;;2.01;63.63;98031.19;3131003;28;19929;-77
2021/01/24 07:07:35;;;;;;;;;;;;;;;2.06;63.39;98033.41;3132267;28;19924;-76
2021/01/24 07:09:20;;;;;;;;;;;;;;;2.02;63.31;98028.41;3130962;28;19993;-79
2021/01/24 07:10:53;;;;;;;;;;;;;;;1.94;64.11;98045.88;3132339;28;20049;-79
2021/01/24 07:12:38;;;;;;;;;;;;;;;2.00;64.14;98045.34;3135308;28;19929;-78
2021/01/24 07:14:42;;;;;;;;;;;;;;;1.95;64.07;98047.53;3128548;28;20053;-77
2021/01/24 07:16:18;;;;;;;;;;;;;;;1.96;64.10;98049.22;3133998;28;19925;-77
2021/01/24 07:18:05;;;;;;;;;;;;;;;1.96;64.70;98060.59;3138706;28;19971;-78
2021/01/24 07:19:40;;;;;;;;;;;;;;;1.95;64.51;98063.34;3128959;28;19925;-77
2021/01/24 07:21:14;;;;;;;;;;;;;;;1.96;65.00;98055.34;3135530;28;19931;-78
2021/01/24 07:22:49;;;;;;;;;;;;;;;1.89;65.39;98054.19;3129283;28;19932;-80
2021/01/24 07:24:24;;;;;;;;;;;;;;;1.88;66.08;98063.09;3137841;28;20454;-77
2021/01/24 07:25:56;;;;;;;;;;;;;;;1.79;66.31;98071.84;3136687;28;19924;-77
2021/01/24 07:27:32;;;;;;;;;;;;;;;1.74;68.14;98059.06;3136159;28;19928;-80
2021/01/24 07:29:07;;;;;;;;;;;;;;;1.69;68.02;98077.94;3133313;28;19932;-77
2021/01/24 07:30:44;;;;;;;;;;;;;;;1.68;68.60;98078.88;3135608;28;19960;-77
2021/01/24 07:32:18;;;;;;;;;;;;;;;1.70;69.28;98084.84;3133169;28;20222;-77
2021/01/24 07:33:53;;;;;;;;;;;;;;;1.69;69.63;98075.28;3125426;28;19929;-77
2021/01/24 07:35:28;;;;;;;;;;;;;;;1.66;69.47;98075.56;3133290;28;20071;-79
2021/01/24 07:37:00;;;;;;;;;;;;;;;1.69;69.22;98079.72;3132630;28;19929;-78
2021/01/24 07:38:31;;;;;;;;;;;;;;;1.60;69.96;98081.38;3138263;28;19959;-78
2021/01/24 07:40:03;;;;;;;;;;;;;;;1.61;70.02;98071.66;3132311;28;19941;-77
2021/01/24 07:41:35;;;;;;;;;;;;;;;1.61;69.83;98083.00;3137383;28;19994;-77
2021/01/24 07:43:08;;;;;;;;;;;;;;;1.61;69.72;98079.56;3134592;28;19959;-77
2021/01/24 07:44:40;;;;;;;;;;;;;;;1.63;69.57;98081.09;3136940;28;20382;-77
2021/01/24 07:46:12;;;;;;;;;;;;;;;1.62;69.42;98068.88;3138092;28;19925;-78
2021/01/24 07:47:44;;;;;;;;;;;;;;;1.59;68.52;98084.13;3138044;28;20371;-78
2021/01/24 07:49:16;;;;;;;;;;;;;;;1.70;68.12;98082.19;3134547;28;19925;-79
2021/01/24 07:50:48;;;;;;;;;;;;;;;1.65;68.42;98084.41;3140004;28;19924;-78
2021/01/24 07:52:20;;;;;;;;;;;;;;;1.70;68.39;98084.84;3132992;28;19936;-79
2021/01/24 07:53:50;;;;;;;;;;;;;;;1.74;68.23;98084.56;3134566;28;19928;-78
2021/01/24 07:55:22;;;;;;;;;;;;;;;1.75;67.34;98087.06;3135654;28;20325;-77
2021/01/24 07:56:53;;;;;;;;;;;;;;;1.82;67.30;98087.34;3136322;28;19984;-78
2021/01/24 07:58:25;;;;;;;;;;;;;;;1.85;67.10;98079.19;3134313;28;19936;-78
2021/01/24 07:59:56;;;;;;;;;;;;;;;1.92;66.62;98082.09;3138203;28;19932;-78
2021/01/24 08:01:28;;;;;;;;;;;;;;;1.92;66.07;98082.91;3134022;28;19935;-78
2021/01/24 08:03:01;;;;;;;;;;;;;;;1.91;66.11;98081.25;3138633;28;19928;-78
2021/01/24 08:04:36;;;;;;;;;;;;;;;1.92;66.05;98079.47;3133550;28;19925;-78
2021/01/24 08:06:07;;;;;;;;;;;;;;;1.97;65.57;98093.06;3138758;28;19925;-77
2021/01/24 08:07:39;;;;;;;;;;;;;;;1.95;66.06;98095.84;3134588;28;19924;-77
2021/01/24 08:09:11;;;;;;;;;;;;;;;1.99;65.62;98085.84;3133882;28;19994;-78
2021/01/24 08:10:43;;;;;;;;;;;;;;;1.95;66.01;98100.25;3135503;28;19948;-78
2021/01/24 08:12:21;;;;;;;;;;;;;;;1.96;66.44;98094.00;3135018;28;19925;-77
2021/01/24 08:13:54;;;;;;;;;;;;;;;1.99;66.55;98096.38;3140651;28;19983;-80
2021/01/24 08:15:27;;;;;;;;;;;;;;;1.92;67.58;98104.00;3140522;28;19921;-78
2021/01/24 08:16:58;;;;;;;;;;;;;;;1.90;67.84;98108.56;3134586;28;19912;-79
2021/01/24 08:18:30;;;;;;;;;;;;;;;1.95;68.07;98098.47;3144108;28;19932;-79
2021/01/24 08:20:03;;;;;;;;;;;;;;;1.79;69.67;98103.44;3138053;28;19932;-78